Time;durP1;ratioP1;P1;durP2;ratioP2;P2;SDS_P1;SDS_P2;PMS_P1;PMS_P2;Temp;Humidity;BMP_temperature;BMP_pressure;BME280_temperature;BME280_humidity;BME280_pressure;Samples;Min_cycle;Max_cycle;Signal;HPM_P1;HPM_P2
2021/08/01 00:02:19;;;;;;;9.80;4.07;;;;;;;;;;5061278;28;20274;-66
2021/08/01 00:04:44;;;;;;;10.25;4.65;;;;;;;;;;5069231;28;20424;-65
2021/08/01 00:07:09;;;;;;;10.23;4.03;;;;;;;;;;5059297;28;20032;-66
2021/08/01 00:09:34;;;;;;;12.33;5.07;;;;;;;;;;5068894;28;20276;-66
2021/08/01 00:14:27;;;;;;;13.52;5.68;;;;;;;;;;5090024;28;20385;-65
2021/08/01 00:16:53;;;;;;;11.13;5.57;;;;;;;;;;5085419;28;20131;-65
2021/08/01 00:19:18;;;;;;;12.95;5.50;;;;;;;;;;5091508;28;20069;-65
2021/08/01 00:21:43;;;;;;;17.93;5.93;;;;;;;;;;5096456;28;20062;-67
2021/08/01 00:24:08;;;;;;;19.88;6.00;;;;;;;;;;5090957;28;20347;-67
2021/08/01 00:26:33;;;;;;;11.40;5.30;;;;;;;;;;5078725;28;20052;-67
2021/08/01 00:28:59;;;;;;;18.00;6.13;;;;;;;;;;5074146;28;20719;-67
2021/08/01 00:31:24;;;;;;;12.18;5.70;;;;;;;;;;5085257;28;20297;-67
2021/08/01 00:33:49;;;;;;;8.88;5.07;;;;;;;;;;5088939;28;20464;-67
2021/08/01 00:36:14;;;;;;;12.40;6.20;;;;;;;;;;5083998;28;20115;-67
2021/08/01 00:38:39;;;;;;;16.48;5.25;;;;;;;;;;5075161;28;20239;-67
2021/08/01 00:41:05;;;;;;;10.65;5.43;;;;;;;;;;5087635;28;20112;-67
2021/08/01 00:43:33;;;;;;;8.80;4.60;;;;;;;;;;5091697;28;20035;-67
2021/08/01 00:45:58;;;;;;;11.50;5.07;;;;;;;;;;5075949;28;20586;-67
2021/08/01 00:48:25;;;;;;;12.45;5.63;;;;;;;;;;5082875;28;20082;-68
2021/08/01 00:50:51;;;;;;;16.00;5.55;;;;;;;;;;5080899;28;20024;-68
2021/08/01 00:53:16;;;;;;;8.43;4.80;;;;;;;;;;5079562;28;20019;-68
2021/08/01 00:55:41;;;;;;;10.77;4.87;;;;;;;;;;5074282;28;20020;-68
2021/08/01 00:58:07;;;;;;;10.00;5.35;;;;;;;;;;5081104;28;20258;-66
2021/08/01 01:03:17;;;;;;;11.68;5.70;;;;;;;;;;5078450;28;20027;-66
2021/08/01 01:05:45;;;;;;;8.57;5.03;;;;;;;;;;5082130;28;20036;-66
2021/08/01 01:08:22;;;;;;;16.52;5.85;;;;;;;;;;5085105;28;20051;-66
2021/08/01 01:10:48;;;;;;;10.45;5.10;;;;;;;;;;5088042;28;20032;-66
2021/08/01 01:13:14;;;;;;;11.05;5.75;;;;;;;;;;5073232;28;20147;-66
2021/08/01 01:15:44;;;;;;;10.70;5.07;;;;;;;;;;5080254;28;20399;-66
2021/08/01 01:18:13;;;;;;;9.93;4.93;;;;;;;;;;5073531;28;20078;-66
2021/08/01 01:20:41;;;;;;;10.65;4.53;;;;;;;;;;5077195;28;20124;-66
2021/08/01 01:23:15;;;;;;;8.40;4.53;;;;;;;;;;5076586;28;20123;-66
2021/08/01 01:25:52;;;;;;;9.48;4.53;;;;;;;;;;5083917;28;20028;-66
2021/08/01 01:28:22;;;;;;;12.85;5.55;;;;;;;;;;5084839;28;20032;-66
2021/08/01 01:30:51;;;;;;;10.52;4.60;;;;;;;;;;5076184;28;20073;-66
2021/08/01 01:33:20;;;;;;;9.90;4.53;;;;;;;;;;5079089;28;20671;-66
2021/08/01 01:35:49;;;;;;;6.83;4.37;;;;;;;;;;5079961;28;20058;-66
2021/08/01 01:38:14;;;;;;;8.80;4.20;;;;;;;;;;5088842;28;20031;-66
2021/08/01 01:40:39;;;;;;;11.05;5.18;;;;;;;;;;5076913;28;20032;-66
2021/08/01 01:43:06;;;;;;;18.10;5.60;;;;;;;;;;5081081;28;20070;-66
2021/08/01 01:45:32;;;;;;;18.58;5.60;;;;;;;;;;5090943;28;20054;-66
2021/08/01 01:47:59;;;;;;;14.85;5.13;;;;;;;;;;5080484;28;20040;-66
2021/08/01 01:50:24;;;;;;;15.45;5.80;;;;;;;;;;5092120;28;20020;-66
2021/08/01 01:52:50;;;;;;;13.60;5.20;;;;;;;;;;5082738;28;20074;-66
2021/08/01 01:55:19;;;;;;;9.85;5.25;;;;;;;;;;5084517;28;20027;-66
2021/08/01 01:57:44;;;;;;;16.08;5.57;;;;;;;;;;5087935;28;20095;-66
2021/08/01 02:00:10;;;;;;;16.25;5.90;;;;;;;;;;5092214;28;20560;-66
2021/08/01 02:02:36;;;;;;;20.38;6.10;;;;;;;;;;5084136;28;20046;-66
2021/08/01 02:05:01;;;;;;;10.93;6.07;;;;;;;;;;5085911;28;20079;-66
2021/08/01 02:07:26;;;;;;;13.88;6.30;;;;;;;;;;5087954;28;20020;-66
2021/08/01 02:10:04;;;;;;;10.30;5.70;;;;;;;;;;5082807;28;20028;-66
2021/08/01 02:12:34;;;;;;;14.15;6.03;;;;;;;;;;5078188;28;20271;-66
2021/08/01 02:15:03;;;;;;;11.73;5.45;;;;;;;;;;5071718;28;20392;-67
2021/08/01 02:17:30;;;;;;;13.85;5.85;;;;;;;;;;5082769;28;20024;-67
2021/08/01 02:19:58;;;;;;;11.95;6.53;;;;;;;;;;5085521;28;20047;-67
2021/08/01 02:22:23;;;;;;;12.77;5.80;;;;;;;;;;5079489;28;20065;-67
2021/08/01 02:24:49;;;;;;;12.60;5.30;;;;;;;;;;5090210;28;20487;-67
2021/08/01 02:27:15;;;;;;;15.25;5.43;;;;;;;;;;5083857;28;20139;-67
2021/08/01 02:29:40;;;;;;;11.52;5.40;;;;;;;;;;5084619;28;20062;-67
2021/08/01 02:32:06;;;;;;;12.20;5.93;;;;;;;;;;5086023;28;20058;-67
2021/08/01 02:34:32;;;;;;;8.52;5.22;;;;;;;;;;5076945;28;20035;-67
2021/08/01 02:36:57;;;;;;;9.80;4.72;;;;;;;;;;5076625;28;20024;-67
2021/08/01 02:39:23;;;;;;;10.45;5.32;;;;;;;;;;5072107;28;20020;-67
2021/08/01 02:41:51;;;;;;;23.38;6.38;;;;;;;;;;5087385;28;20115;-67
2021/08/01 02:44:22;;;;;;;8.68;4.85;;;;;;;;;;5076665;28;20111;-67
2021/08/01 02:46:48;;;;;;;7.78;4.97;;;;;;;;;;5083215;28;20545;-67
2021/08/01 02:49:17;;;;;;;11.18;4.95;;;;;;;;;;5072037;28;20020;-67
2021/08/01 02:51:46;;;;;;;14.73;7.05;;;;;;;;;;5079758;28;20107;-67
2021/08/01 02:54:12;;;;;;;9.35;5.68;;;;;;;;;;5080763;28;20052;-67
2021/08/01 02:56:38;;;;;;;14.93;7.05;;;;;;;;;;5082329;28;20056;-67
2021/08/01 02:59:03;;;;;;;17.27;6.32;;;;;;;;;;5077358;28;20020;-67
2021/08/01 03:01:29;;;;;;;12.80;6.97;;;;;;;;;;5081894;28;20021;-67
2021/08/01 03:03:55;;;;;;;14.18;7.05;;;;;;;;;;5078444;28;20021;-67
2021/08/01 03:06:20;;;;;;;14.50;7.80;;;;;;;;;;5074470;28;20024;-67
2021/08/01 03:08:45;;;;;;;12.82;7.18;;;;;;;;;;5077208;28;20027;-67
2021/08/01 03:11:18;;;;;;;11.65;7.15;;;;;;;;;;5080080;28;20480;-67
2021/08/01 03:13:44;;;;;;;19.38;7.70;;;;;;;;;;5084251;28;20495;-67
2021/08/01 03:16:09;;;;;;;13.63;7.93;;;;;;;;;;5077443;28;20028;-67
2021/08/01 03:18:34;;;;;;;17.08;7.60;;;;;;;;;;5076337;28;20263;-67
2021/08/01 03:20:59;;;;;;;18.63;8.60;;;;;;;;;;5073172;28;20033;-67
2021/08/01 03:23:24;;;;;;;14.40;7.60;;;;;;;;;;5073972;28;20020;-67
2021/08/01 03:25:50;;;;;;;15.03;8.33;;;;;;;;;;5072195;28;20270;-67
2021/08/01 03:28:15;;;;;;;14.47;7.70;;;;;;;;;;5075280;28;20262;-67
2021/08/01 03:30:40;;;;;;;16.38;7.40;;;;;;;;;;5087992;28;20261;-67
2021/08/01 03:33:06;;;;;;;16.13;8.20;;;;;;;;;;5072911;28;20032;-67
2021/08/01 03:35:31;;;;;;;17.08;8.68;;;;;;;;;;5086782;28;20633;-67
2021/08/01 03:37:57;;;;;;;20.10;8.70;;;;;;;;;;5084192;28;20012;-67
2021/08/01 03:40:22;;;;;;;14.05;8.25;;;;;;;;;;5079397;28;20261;-68
2021/08/01 03:42:47;;;;;;;17.87;8.77;;;;;;;;;;5070948;28;20013;-68
2021/08/01 03:45:13;;;;;;;16.17;9.68;;;;;;;;;;5083803;28;20269;-68
2021/08/01 03:47:38;;;;;;;16.15;9.02;;;;;;;;;;5087179;28;20073;-68
2021/08/01 03:50:04;;;;;;;22.55;8.80;;;;;;;;;;5072578;28;20060;-68
2021/08/01 03:52:29;;;;;;;13.90;8.57;;;;;;;;;;5074273;28;20058;-68
2021/08/01 03:54:54;;;;;;;17.52;10.18;;;;;;;;;;5073823;28;20469;-68
2021/08/01 03:57:20;;;;;;;19.73;10.02;;;;;;;;;;5076352;28;20020;-68
2021/08/01 03:59:45;;;;;;;20.23;11.40;;;;;;;;;;5070889;28;21484;-68
2021/08/01 04:02:10;;;;;;;23.60;12.23;;;;;;;;;;5082285;28;20277;-68
2021/08/01 04:04:35;;;;;;;20.40;11.20;;;;;;;;;;5075121;28;20030;-68
2021/08/01 04:07:00;;;;;;;18.53;10.80;;;;;;;;;;5070701;28;20267;-68
2021/08/01 04:09:26;;;;;;;17.23;9.80;;;;;;;;;;5070189;28;20769;-68
2021/08/01 04:11:51;;;;;;;17.13;8.60;;;;;;;;;;5070772;28;20066;-68
2021/08/01 04:14:16;;;;;;;18.53;9.07;;;;;;;;;;5075963;28;20028;-68
2021/08/01 04:16:41;;;;;;;12.20;7.50;;;;;;;;;;5078922;28;20296;-68
2021/08/01 04:19:10;;;;;;;15.95;7.82;;;;;;;;;;5075531;28;20016;-68
2021/08/01 04:21:38;;;;;;;13.30;6.75;;;;;;;;;;5081354;28;20410;-68
2021/08/01 04:24:04;;;;;;;18.73;7.80;;;;;;;;;;5085465;28;20085;-68
2021/08/01 04:26:29;;;;;;;19.13;7.63;;;;;;;;;;5088087;28;20418;-68
2021/08/01 04:28:54;;;;;;;19.00;8.50;;;;;;;;;;5071806;28;20048;-68
2021/08/01 04:31:20;;;;;;;18.08;9.18;;;;;;;;;;5085876;28;20326;-68
2021/08/01 04:33:45;;;;;;;20.33;8.60;;;;;;;;;;5083046;28;20020;-68
2021/08/01 04:36:10;;;;;;;13.17;8.53;;;;;;;;;;5089258;28;20293;-68
2021/08/01 04:38:35;;;;;;;21.20;9.00;;;;;;;;;;5074831;28;20758;-68
2021/08/01 04:41:00;;;;;;;19.60;9.07;;;;;;;;;;5065214;28;20304;-68
2021/08/01 04:43:25;;;;;;;18.10;9.88;;;;;;;;;;5074862;28;20266;-68
2021/08/01 04:45:51;;;;;;;20.38;9.13;;;;;;;;;;5082273;28;20071;-68
2021/08/01 04:48:16;;;;;;;17.58;9.05;;;;;;;;;;5086141;28;20028;-68
2021/08/01 04:50:41;;;;;;;19.80;9.93;;;;;;;;;;5071364;28;20446;-68
2021/08/01 04:53:06;;;;;;;23.10;12.07;;;;;;;;;;5079013;28;20056;-68
2021/08/01 04:55:31;;;;;;;27.05;12.88;;;;;;;;;;5088472;28;20777;-68
2021/08/01 04:57:57;;;;;;;23.50;11.40;;;;;;;;;;5075691;28;20473;-68
2021/08/01 05:00:22;;;;;;;30.63;14.10;;;;;;;;;;5076807;28;20098;-68
2021/08/01 05:02:47;;;;;;;24.15;11.63;;;;;;;;;;5076401;28;20058;-68
2021/08/01 05:05:12;;;;;;;27.37;12.50;;;;;;;;;;5084068;28;20059;-68
2021/08/01 05:07:38;;;;;;;27.92;12.32;;;;;;;;;;5075578;28;20282;-68
2021/08/01 05:10:03;;;;;;;21.88;9.40;;;;;;;;;;5091090;28;20031;-68
2021/08/01 05:12:28;;;;;;;21.60;9.70;;;;;;;;;;5079829;28;20030;-68
2021/08/01 05:14:53;;;;;;;18.43;9.30;;;;;;;;;;5084013;28;20024;-68
2021/08/01 05:17:19;;;;;;;20.83;8.13;;;;;;;;;;5085900;28;20277;-68
2021/08/01 05:19:44;;;;;;;22.25;9.98;;;;;;;;;;5090331;28;20262;-68
2021/08/01 05:22:10;;;;;;;12.98;7.55;;;;;;;;;;5082647;28;20024;-68
2021/08/01 05:24:36;;;;;;;18.83;7.90;;;;;;;;;;5090633;28;20461;-68
2021/08/01 05:27:01;;;;;;;16.40;8.27;;;;;;;;;;5089752;28;20024;-68
2021/08/01 05:29:26;;;;;;;18.83;8.25;;;;;;;;;;5082395;28;20016;-68
2021/08/01 05:31:51;;;;;;;13.65;7.40;;;;;;;;;;5083502;28;20020;-68
2021/08/01 05:34:17;;;;;;;15.80;7.50;;;;;;;;;;5092444;28;20016;-68
2021/08/01 05:36:42;;;;;;;18.02;7.55;;;;;;;;;;5081576;28;20849;-68
2021/08/01 05:39:07;;;;;;;15.50;8.30;;;;;;;;;;5089250;28;20024;-68
2021/08/01 05:41:32;;;;;;;21.67;9.07;;;;;;;;;;5081202;28;20289;-68
2021/08/01 05:43:57;;;;;;;17.10;7.70;;;;;;;;;;5091678;28;20357;-68
2021/08/01 05:46:22;;;;;;;22.57;8.30;;;;;;;;;;5079878;28;20266;-68
2021/08/01 05:48:48;;;;;;;16.30;9.20;;;;;;;;;;5089144;28;20285;-68
2021/08/01 05:51:13;;;;;;;17.80;9.80;;;;;;;;;;5090072;28;20262;-68
2021/08/01 05:53:38;;;;;;;18.25;9.60;;;;;;;;;;5085981;28;20630;-68
2021/08/01 05:56:07;;;;;;;20.60;8.97;;;;;;;;;;5073320;28;20400;-68
2021/08/01 05:58:32;;;;;;;23.25;7.57;;;;;;;;;;5084456;28;20266;-68
2021/08/01 06:00:57;;;;;;;17.73;7.77;;;;;;;;;;5080957;28;20029;-68
2021/08/01 06:03:22;;;;;;;18.43;9.23;;;;;;;;;;5072768;28;20342;-67
2021/08/01 06:05:47;;;;;;;18.00;9.17;;;;;;;;;;5078542;28;20270;-67
2021/08/01 06:08:13;;;;;;;21.97;8.40;;;;;;;;;;5086196;28;20298;-68
2021/08/01 06:10:38;;;;;;;17.07;8.03;;;;;;;;;;5083143;28;20274;-66
2021/08/01 06:13:03;;;;;;;23.53;8.83;;;;;;;;;;5086248;28;20442;-65
2021/08/01 06:15:28;;;;;;;23.77;8.47;;;;;;;;;;5076245;28;20286;-68
2021/08/01 06:17:53;;;;;;;16.13;8.00;;;;;;;;;;5079099;28;20722;-65
2021/08/01 06:20:18;;;;;;;18.37;8.57;;;;;;;;;;5076100;28;20254;-68
2021/08/01 06:22:44;;;;;;;20.70;8.93;;;;;;;;;;5079355;28;20258;-68
2021/08/01 06:25:09;;;;;;;20.63;8.73;;;;;;;;;;5080748;28;20098;-68
2021/08/01 06:27:34;;;;;;;19.17;7.20;;;;;;;;;;5072260;28;20267;-68
2021/08/01 06:29:59;;;;;;;20.27;7.32;;;;;;;;;;5074482;28;20393;-65
2021/08/01 06:32:24;;;;;;;19.60;6.82;;;;;;;;;;5081712;28;20023;-65
2021/08/01 06:34:50;;;;;;;18.10;7.97;;;;;;;;;;5078408;28;20028;-65
2021/08/01 06:37:15;;;;;;;19.73;7.80;;;;;;;;;;5090986;28;20258;-67
2021/08/01 06:39:43;;;;;;;18.07;8.50;;;;;;;;;;5086702;28;20016;-66
2021/08/01 06:42:09;;;;;;;15.38;8.00;;;;;;;;;;5071761;28;20263;-65
2021/08/01 06:44:34;;;;;;;15.67;7.47;;;;;;;;;;5084840;28;20093;-65
2021/08/01 06:46:59;;;;;;;14.75;8.38;;;;;;;;;;5084714;28;20265;-66
2021/08/01 06:49:24;;;;;;;22.17;7.70;;;;;;;;;;5087747;28;20035;-68
2021/08/01 06:51:49;;;;;;;14.83;7.27;;;;;;;;;;5082332;28;20028;-65
2021/08/01 06:54:14;;;;;;;15.90;7.37;;;;;;;;;;5085293;28;20265;-65
2021/08/01 06:56:40;;;;;;;15.60;7.43;;;;;;;;;;5079912;28;20473;-66
2021/08/01 06:59:05;;;;;;;15.73;7.10;;;;;;;;;;5076478;28;20040;-67
2021/08/01 07:01:30;;;;;;;15.70;6.57;;;;;;;;;;5072487;28;20028;-66
2021/08/01 07:03:55;;;;;;;16.03;7.17;;;;;;;;;;5073189;28;20283;-66
2021/08/01 07:06:20;;;;;;;10.47;6.30;;;;;;;;;;5077083;28;20281;-65
2021/08/01 07:08:46;;;;;;;14.13;7.23;;;;;;;;;;5082505;28;20274;-66
2021/08/01 07:11:11;;;;;;;17.83;7.00;;;;;;;;;;5076396;28;20747;-66
2021/08/01 07:13:36;;;;;;;21.03;7.30;;;;;;;;;;5089106;28;20284;-66
2021/08/01 07:16:05;;;;;;;16.27;6.70;;;;;;;;;;5074470;28;20352;-66
2021/08/01 07:18:31;;;;;;;16.40;6.38;;;;;;;;;;5071045;28;20427;-67
2021/08/01 07:20:56;;;;;;;12.52;5.80;;;;;;;;;;5071100;28;20025;-66
2021/08/01 07:23:22;;;;;;;12.35;5.10;;;;;;;;;;5071517;28;20020;-67
2021/08/01 07:25:47;;;;;;;17.38;5.22;;;;;;;;;;5078835;28;20055;-67
2021/08/01 07:28:12;;;;;;;15.47;4.10;;;;;;;;;;5081705;28;20431;-66
2021/08/01 07:30:37;;;;;;;12.53;4.83;;;;;;;;;;5080853;28;20270;-66
2021/08/01 07:33:02;;;;;;;18.30;5.63;;;;;;;;;;5081973;28;20078;-68
2021/08/01 07:35:28;;;;;;;12.82;5.18;;;;;;;;;;5072600;28;20699;-67
2021/08/01 07:37:53;;;;;;;11.25;5.10;;;;;;;;;;5079854;28;20441;-67
2021/08/01 07:40:18;;;;;;;8.13;3.92;;;;;;;;;;5074400;28;20443;-67
2021/08/01 07:42:43;;;;;;;14.53;5.50;;;;;;;;;;5069818;28;20048;-67
2021/08/01 07:45:29;;;;;;;13.13;4.57;;;;;;;;;;5068100;28;20043;-67
2021/08/01 07:47:54;;;;;;;14.88;4.40;;;;;;;;;;5072653;28;20511;-67
2021/08/01 07:50:19;;;;;;;6.63;3.60;;;;;;;;;;5071969;28;20036;-67
2021/08/01 07:52:45;;;;;;;12.27;3.53;;;;;;;;;;5084228;28;20024;-67
2021/08/01 07:55:14;;;;;;;8.37;3.30;;;;;;;;;;5082302;28;20331;-67
2021/08/01 07:57:40;;;;;;;10.07;3.88;;;;;;;;;;5072274;28;20298;-68
2021/08/01 08:00:05;;;;;;;7.95;3.22;;;;;;;;;;5067414;28;20064;-67
2021/08/01 08:02:30;;;;;;;12.48;3.35;;;;;;;;;;5082288;28;20058;-67
2021/08/01 08:04:56;;;;;;;4.73;2.43;;;;;;;;;;5077574;28;20565;-67
2021/08/01 08:07:21;;;;;;;8.63;3.60;;;;;;;;;;5075892;28;20281;-67
2021/08/01 08:09:46;;;;;;;9.93;3.77;;;;;;;;;;5083692;28;20028;-66
2021/08/01 08:12:11;;;;;;;6.32;2.95;;;;;;;;;;5075693;28;20343;-67
2021/08/01 08:14:37;;;;;;;8.10;3.00;;;;;;;;;;5069076;28;20024;-66
2021/08/01 08:17:02;;;;;;;8.02;3.10;;;;;;;;;;5079919;28;20431;-66
2021/08/01 08:19:27;;;;;;;8.52;2.30;;;;;;;;;;5082260;28;20020;-66
2021/08/01 08:21:53;;;;;;;7.75;2.90;;;;;;;;;;5078922;28;20043;-67
2021/08/01 08:24:18;;;;;;;4.70;2.63;;;;;;;;;;5079250;28;20103;-67
2021/08/01 08:26:43;;;;;;;7.38;3.00;;;;;;;;;;5084783;28;20016;-66
2021/08/01 08:29:08;;;;;;;8.60;2.40;;;;;;;;;;5074201;28;20496;-67
2021/08/01 08:31:34;;;;;;;13.30;3.10;;;;;;;;;;5076147;28;20036;-66
2021/08/01 08:33:59;;;;;;;10.03;2.50;;;;;;;;;;5082724;28;20508;-67
2021/08/01 08:36:25;;;;;;;7.73;2.63;;;;;;;;;;5077326;28;20290;-66
2021/08/01 08:38:50;;;;;;;7.00;2.30;;;;;;;;;;5074971;28;20099;-66
2021/08/01 08:41:16;;;;;;;6.33;2.40;;;;;;;;;;5075235;28;20235;-67
2021/08/01 08:43:41;;;;;;;10.98;2.72;;;;;;;;;;5074862;28;20020;-67
2021/08/01 08:46:08;;;;;;;9.45;2.67;;;;;;;;;;5082643;28;20507;-67
2021/08/01 08:48:33;;;;;;;6.75;2.85;;;;;;;;;;5083770;28;20455;-67
2021/08/01 08:50:59;;;;;;;8.60;3.50;;;;;;;;;;5086649;28;20724;-67
2021/08/01 08:53:25;;;;;;;17.55;3.50;;;;;;;;;;5072005;28;20028;-66
2021/08/01 08:55:52;;;;;;;5.85;2.47;;;;;;;;;;5072532;28;20028;-66
2021/08/01 08:58:21;;;;;;;8.00;3.13;;;;;;;;;;5089822;28;20031;-66
2021/08/01 09:00:47;;;;;;;6.88;2.90;;;;;;;;;;5091463;28;20103;-67
2021/08/01 09:03:12;;;;;;;4.40;2.75;;;;;;;;;;5078245;28;20126;-66
2021/08/01 09:05:37;;;;;;;6.53;3.27;;;;;;;;;;5085771;28;20036;-66
2021/08/01 09:08:02;;;;;;;11.75;2.90;;;;;;;;;;5067755;28;20052;-66
2021/08/01 09:10:30;;;;;;;11.82;3.60;;;;;;;;;;5084635;28;20020;-67
2021/08/01 09:12:55;;;;;;;8.65;2.55;;;;;;;;;;5090652;28;20427;-66
2021/08/01 09:15:23;;;;;;;11.73;2.77;;;;;;;;;;5076695;28;20025;-67
2021/08/01 09:17:49;;;;;;;8.43;3.72;;;;;;;;;;5077360;28;20004;-67
2021/08/01 09:20:24;;;;;;;9.60;3.92;;;;;;;;;;5077988;28;20575;-67
2021/08/01 09:23:01;;;;;;;8.20;3.28;;;;;;;;;;5077840;28;20141;-66
2021/08/01 09:25:28;;;;;;;9.80;3.40;;;;;;;;;;5081422;28;20040;-67
2021/08/01 09:28:09;;;;;;;9.25;2.92;;;;;;;;;;5072446;28;20800;-67
2021/08/01 09:30:41;;;;;;;6.72;3.40;;;;;;;;;;5075274;28;20017;-67
2021/08/01 09:33:06;;;;;;;6.25;2.97;;;;;;;;;;5088791;28;20034;-67
2021/08/01 09:35:31;;;;;;;11.80;3.07;;;;;;;;;;5074467;28;20036;-67
2021/08/01 09:37:58;;;;;;;8.87;3.53;;;;;;;;;;5084949;28;20310;-68
2021/08/01 09:40:34;;;;;;;6.75;2.97;;;;;;;;;;5064834;28;20358;-67
2021/08/01 09:43:25;;;;;;;8.30;3.33;;;;;;;;;;5083776;28;20025;-67
2021/08/01 09:45:56;;;;;;;14.90;3.75;;;;;;;;;;5080269;28;20044;-67
2021/08/01 09:48:22;;;;;;;13.35;3.80;;;;;;;;;;5081125;28;20031;-67
2021/08/01 09:51:03;;;;;;;9.32;3.83;;;;;;;;;;5072907;28;20024;-67
2021/08/01 09:53:29;;;;;;;8.30;3.30;;;;;;;;;;5073732;28;20031;-67
2021/08/01 09:56:09;;;;;;;10.07;3.17;;;;;;;;;;5074956;28;20029;-67
2021/08/01 09:58:35;;;;;;;8.20;3.00;;;;;;;;;;5079444;28;20051;-67
2021/08/01 10:01:01;;;;;;;6.97;3.72;;;;;;;;;;5084677;28;20443;-66
2021/08/01 10:03:42;;;;;;;6.72;2.60;;;;;;;;;;5085631;28;20016;-66
2021/08/01 10:06:09;;;;;;;5.50;2.50;;;;;;;;;;5074221;28;20021;-66
2021/08/01 10:08:35;;;;;;;7.70;2.83;;;;;;;;;;5082185;28;20044;-66
2021/08/01 10:11:07;;;;;;;4.45;2.00;;;;;;;;;;5074969;28;20058;-69
2021/08/01 10:13:33;;;;;;;7.78;2.63;;;;;;;;;;5082845;28;20419;-67
2021/08/01 10:15:59;;;;;;;4.20;2.00;;;;;;;;;;5079542;28;20062;-67
2021/08/01 10:18:24;;;;;;;7.18;2.40;;;;;;;;;;5073961;28;20017;-67
2021/08/01 10:20:49;;;;;;;8.17;2.57;;;;;;;;;;5071521;28;20016;-67
2021/08/01 10:23:14;;;;;;;9.37;2.23;;;;;;;;;;5071300;28;20263;-67
2021/08/01 10:25:40;;;;;;;8.63;2.33;;;;;;;;;;5072472;28;20275;-67
2021/08/01 10:28:06;;;;;;;5.82;2.85;;;;;;;;;;5071367;28;20321;-68
2021/08/01 10:30:31;;;;;;;9.15;2.30;;;;;;;;;;5072407;28;20035;-67
2021/08/01 10:33:04;;;;;;;7.35;1.92;;;;;;;;;;5082528;28;20039;-68
2021/08/01 10:35:30;;;;;;;6.57;2.25;;;;;;;;;;5073675;28;20131;-66
2021/08/01 10:37:58;;;;;;;4.57;1.98;;;;;;;;;;5071097;28;20548;-67
2021/08/01 10:40:25;;;;;;;9.27;2.75;;;;;;;;;;5080804;28;20205;-67
2021/08/01 10:42:55;;;;;;;6.05;2.20;;;;;;;;;;5079917;28;20529;-67
2021/08/01 10:45:20;;;;;;;8.27;2.47;;;;;;;;;;5070872;28;20031;-67
2021/08/01 10:47:47;;;;;;;7.82;2.70;;;;;;;;;;5086973;28;20028;-67
2021/08/01 10:50:25;;;;;;;7.93;3.85;;;;;;;;;;5079623;28;20031;-68
2021/08/01 10:53:11;;;;;;;4.57;2.08;;;;;;;;;;5074295;28;20024;-67
2021/08/01 10:55:36;;;;;;;4.68;2.50;;;;;;;;;;5075840;28;20032;-68
2021/08/01 10:58:12;;;;;;;5.63;2.33;;;;;;;;;;5079498;28;20044;-67
2021/08/01 11:00:56;;;;;;;6.65;2.90;;;;;;;;;;5076263;28;20109;-67
2021/08/01 11:03:22;;;;;;;9.00;2.60;;;;;;;;;;5076399;28;20024;-68
2021/08/01 11:05:47;;;;;;;6.53;2.65;;;;;;;;;;5070953;28;20024;-68
2021/08/01 11:08:13;;;;;;;9.17;3.27;;;;;;;;;;5074906;28;20155;-68
2021/08/01 11:10:39;;;;;;;11.50;3.00;;;;;;;;;;5076471;28;20635;-66
2021/08/01 11:13:22;;;;;;;6.32;2.47;;;;;;;;;;5080845;28;20035;-67
2021/08/01 11:15:48;;;;;;;12.30;4.63;;;;;;;;;;5070827;28;20043;-66
2021/08/01 11:18:13;;;;;;;8.32;2.97;;;;;;;;;;5070719;28;20035;-67
2021/08/01 11:20:44;;;;;;;6.97;3.00;;;;;;;;;;5072740;28;20016;-68
2021/08/01 11:23:10;;;;;;;7.32;2.55;;;;;;;;;;5078574;28;20031;-67
2021/08/01 11:25:36;;;;;;;6.60;2.63;;;;;;;;;;5070413;28;20020;-67
2021/08/01 11:28:07;;;;;;;8.60;3.25;;;;;;;;;;5074878;28;20100;-67
2021/08/01 11:30:54;;;;;;;6.85;2.78;;;;;;;;;;5071278;28;20024;-67
2021/08/01 11:33:31;;;;;;;9.40;3.30;;;;;;;;;;5070541;28;20388;-67
2021/08/01 11:36:09;;;;;;;5.70;2.70;;;;;;;;;;5085256;28;20054;-67
2021/08/01 11:38:35;;;;;;;8.80;3.67;;;;;;;;;;5073929;28;20065;-67
2021/08/01 11:41:01;;;;;;;12.23;2.60;;;;;;;;;;5062178;28;20416;-66
2021/08/01 11:43:26;;;;;;;6.65;2.60;;;;;;;;;;5073002;28;20048;-67
2021/08/01 11:45:57;;;;;;;3.70;2.40;;;;;;;;;;5070862;28;20028;-67
2021/08/01 11:48:23;;;;;;;8.88;2.55;;;;;;;;;;5070546;28;20266;-67
2021/08/01 11:50:49;;;;;;;5.97;2.60;;;;;;;;;;5075871;28;20105;-67
2021/08/01 11:53:14;;;;;;;9.73;3.60;;;;;;;;;;5081652;28;20452;-68
2021/08/01 11:55:44;;;;;;;6.73;3.10;;;;;;;;;;5084305;28;20032;-68
2021/08/01 11:58:10;;;;;;;7.00;2.83;;;;;;;;;;5080821;28;20290;-66
2021/08/01 12:00:36;;;;;;;8.30;2.85;;;;;;;;;;5081919;28;20479;-68
2021/08/01 12:03:02;;;;;;;10.80;4.45;;;;;;;;;;5074178;28;20065;-68
2021/08/01 12:05:40;;;;;;;10.63;3.67;;;;;;;;;;5085205;28;20020;-67
2021/08/01 12:08:06;;;;;;;9.30;3.10;;;;;;;;;;5073771;28;20108;-68
2021/08/01 12:10:31;;;;;;;8.27;3.07;;;;;;;;;;5086147;28;20095;-68
2021/08/01 12:12:56;;;;;;;7.60;3.17;;;;;;;;;;5105507;22;20306;-67
2021/08/01 12:15:26;;;;;;;8.25;2.80;;;;;;;;;;5087758;28;20335;-68
2021/08/01 12:17:51;;;;;;;6.70;3.10;;;;;;;;;;5080732;28;20563;-67
2021/08/01 12:20:16;;;;;;;7.65;2.67;;;;;;;;;;5089754;28;20115;-67
2021/08/01 12:22:46;;;;;;;7.78;2.88;;;;;;;;;;5086568;28;20355;-68
2021/08/01 12:25:11;;;;;;;5.60;1.98;;;;;;;;;;5072401;28;20040;-66
2021/08/01 12:27:37;;;;;;;6.70;2.92;;;;;;;;;;5071530;28;20024;-68
2021/08/01 12:30:05;;;;;;;6.55;2.97;;;;;;;;;;5072271;28;20082;-68
2021/08/01 12:32:30;;;;;;;3.85;2.10;;;;;;;;;;5072954;28;20111;-67
2021/08/01 12:35:06;;;;;;;5.65;3.25;;;;;;;;;;5068024;28;20119;-67
2021/08/01 12:37:39;;;;;;;4.20;2.55;;;;;;;;;;5072502;28;20108;-68
2021/08/01 12:40:04;;;;;;;7.20;2.60;;;;;;;;;;5062892;28;20021;-67
2021/08/01 12:42:29;;;;;;;6.18;2.60;;;;;;;;;;5061352;28;20020;-67
2021/08/01 12:44:59;;;;;;;5.67;2.73;;;;;;;;;;5072612;28;20113;-68
2021/08/01 12:47:25;;;;;;;6.18;3.22;;;;;;;;;;5073350;28;20020;-67
2021/08/01 12:49:51;;;;;;;6.10;2.78;;;;;;;;;;5072365;28;20071;-66
2021/08/01 12:52:17;;;;;;;7.97;3.60;;;;;;;;;;5071463;28;20484;-67
2021/08/01 12:54:43;;;;;;;6.35;2.80;;;;;;;;;;5072266;28;20059;-67
2021/08/01 12:57:08;;;;;;;6.07;2.60;;;;;;;;;;5072094;28;20056;-67
2021/08/01 12:59:34;;;;;;;7.18;2.47;;;;;;;;;;5071314;28;20103;-67
2021/08/01 13:01:59;;;;;;;5.78;2.60;;;;;;;;;;5071457;28;20021;-68
2021/08/01 13:04:25;;;;;;;6.65;2.72;;;;;;;;;;5071276;28;20024;-67
2021/08/01 13:06:59;;;;;;;9.83;2.97;;;;;;;;;;5064778;28;20440;-68
2021/08/01 13:09:24;;;;;;;7.68;2.90;;;;;;;;;;5068364;28;20631;-67
2021/08/01 13:11:49;;;;;;;7.80;2.40;;;;;;;;;;5070992;28;20448;-68
2021/08/01 13:14:14;;;;;;;6.30;2.50;;;;;;;;;;5072350;28;20331;-68
2021/08/01 13:16:50;;;;;;;6.13;3.00;;;;;;;;;;5068152;28;20273;-68
2021/08/01 13:19:17;;;;;;;4.32;2.58;;;;;;;;;;5069007;28;20263;-68
2021/08/01 13:22:01;;;;;;;4.70;2.80;;;;;;;;;;5071437;28;20401;-68
2021/08/01 13:24:31;;;;;;;6.55;2.78;;;;;;;;;;5061363;28;20620;-68
2021/08/01 13:26:56;;;;;;;;;;;;;;;;;;5064753;28;20040;-68
2021/08/01 13:29:22;;;;;;;6.18;2.88;;;;;;;;;;5059413;28;19973;-68
2021/08/01 13:31:49;;;;;;;7.20;3.20;;;;;;;;;;5068818;28;20107;-68
2021/08/01 13:34:16;;;;;;;8.23;3.20;;;;;;;;;;5069240;28;20083;-67
2021/08/01 13:36:55;;;;;;;10.18;3.33;;;;;;;;;;5069811;28;20396;-68
2021/08/01 13:39:25;;;;;;;11.35;3.30;;;;;;;;;;5069250;28;20081;-68
2021/08/01 13:42:03;;;;;;;6.05;2.80;;;;;;;;;;5069616;28;20487;-67
2021/08/01 13:44:28;;;;;;;10.82;3.20;;;;;;;;;;5064420;28;20105;-68
2021/08/01 13:47:07;;;;;;;9.77;2.97;;;;;;;;;;5059438;28;20032;-68
2021/08/01 13:49:32;;;;;;;9.45;2.92;;;;;;;;;;5051014;28;20078;-68
2021/08/01 13:51:57;;;;;;;10.17;3.67;;;;;;;;;;5069493;28;20028;-67
2021/08/01 13:54:22;;;;;;;7.17;2.97;;;;;;;;;;5070093;28;20075;-68
2021/08/01 13:56:47;;;;;;;6.87;3.10;;;;;;;;;;5069672;28;20321;-67
2021/08/01 13:59:12;;;;;;;13.73;3.23;;;;;;;;;;5068602;28;20473;-68
2021/08/01 14:01:38;;;;;;;8.47;3.90;;;;;;;;;;5062507;28;20263;-68
2021/08/01 14:04:09;;;;;;;5.37;2.63;;;;;;;;;;5068434;28;20335;-69
2021/08/01 14:06:35;;;;;;;7.03;2.35;;;;;;;;;;5068939;28;20029;-68
2021/08/01 14:09:00;;;;;;;6.93;2.83;;;;;;;;;;5069728;28;20029;-68
2021/08/01 14:11:25;;;;;;;7.57;2.70;;;;;;;;;;5068931;28;20518;-68
2021/08/01 14:13:50;;;;;;;3.60;2.37;;;;;;;;;;5069118;28;20048;-67
2021/08/01 14:16:15;;;;;;;6.33;2.10;;;;;;;;;;5068023;28;20509;-68
2021/08/01 14:18:41;;;;;;;9.50;3.03;;;;;;;;;;5068018;28;20274;-67
2021/08/01 14:21:06;;;;;;;6.15;2.90;;;;;;;;;;5064183;28;20272;-68
2021/08/01 14:23:31;;;;;;;12.23;2.13;;;;;;;;;;5066354;28;20100;-68
2021/08/01 14:25:58;;;;;;;3.83;2.40;;;;;;;;;;5068926;28;20695;-67
2021/08/01 14:28:23;;;;;;;7.57;3.13;;;;;;;;;;5068067;28;20274;-68
2021/08/01 14:30:49;;;;;;;7.20;2.35;;;;;;;;;;5068040;28;20024;-67
2021/08/01 14:33:15;;;;;;;5.28;2.50;;;;;;;;;;5068431;28;20707;-68
2021/08/01 14:35:41;;;;;;;3.88;2.33;;;;;;;;;;5068686;28;20488;-67
2021/08/01 14:38:06;;;;;;;3.65;2.22;;;;;;;;;;5068463;28;20039;-67
2021/08/01 14:40:32;;;;;;;6.47;2.33;;;;;;;;;;5068485;28;20033;-68